Mount Lookout, Ohio
Current Conditions -  °F | °C
As of 4:53 PM on Friday 24 Oct 2014 (Local Time) from KLUK Reporting Station
Clear Clear  
Wind Chill: 65°   Ceiling: Unl
Heat Index: 65°   Visibility: 10mi
Dew Point: 38°   Wind: 5mph
Humidity: 37%   Direction: 250°WSW
Pressure: 30.04"   Gusts: NA
Location:  39.1347°N, 84.4352°W
Report Text: KLUK 242053Z 25004KT 10SM CLR 18/03 A3004 RMK AO2 SLP174 T01830033 56016
Loading
Personal Weather Stations






























Interactive Weather Map
Tropical Storm Tracking
New forecast layout! Learn more

10-Day Weather Forecast

Advertisements
Track Severe Weather on mobile